sensor_id;sensor_type;location;lat;lon;timestamp;P1;durP1;ratioP1;P2;durP2;ratioP2
21645;SDS011;10984;45.712;4.800;2022-12-24T00:02:16;6.80;;;3.20;;
21645;SDS011;10984;45.712;4.800;2022-12-24T00:04:42;7.30;;;3.72;;
21645;SDS011;10984;45.712;4.800;2022-12-24T00:07:08;6.30;;;3.30;;
21645;SDS011;10984;45.712;4.800;2022-12-24T00:09:34;7.28;;;3.83;;
21645;SDS011;10984;45.712;4.800;2022-12-24T00:11:59;7.57;;;3.10;;
21645;SDS011;10984;45.712;4.800;2022-12-24T00:14:25;6.15;;;3.50;;
21645;SDS011;10984;45.712;4.800;2022-12-24T00:16:51;6.53;;;3.40;;
21645;SDS011;10984;45.712;4.800;2022-12-24T00:19:16;6.20;;;3.15;;
21645;SDS011;10984;45.712;4.800;2022-12-24T00:21:42;5.60;;;3.08;;
21645;SDS011;10984;45.712;4.800;2022-12-24T00:24:08;12.02;;;3.50;;
21645;SDS011;10984;45.712;4.800;2022-12-24T00:26:33;10.02;;;3.55;;
21645;SDS011;10984;45.712;4.800;2022-12-24T00:28:59;6.60;;;3.53;;
21645;SDS011;10984;45.712;4.800;2022-12-24T00:31:25;7.32;;;3.35;;
21645;SDS011;10984;45.712;4.800;2022-12-24T00:33:51;9.15;;;3.60;;
21645;SDS011;10984;45.712;4.800;2022-12-24T00:36:17;8.75;;;3.78;;
21645;SDS011;10984;45.712;4.800;2022-12-24T00:38:43;8.50;;;3.30;;
21645;SDS011;10984;45.712;4.800;2022-12-24T00:41:09;8.15;;;3.53;;
21645;SDS011;10984;45.712;4.800;2022-12-24T00:46:40;5.90;;;2.92;;
21645;SDS011;10984;45.712;4.800;2022-12-24T00:49:07;9.43;;;4.47;;
21645;SDS011;10984;45.712;4.800;2022-12-24T00:51:34;6.13;;;3.53;;
21645;SDS011;10984;45.712;4.800;2022-12-24T00:54:01;12.15;;;4.38;;
21645;SDS011;10984;45.712;4.800;2022-12-24T00:56:27;13.43;;;5.07;;
21645;SDS011;10984;45.712;4.800;2022-12-24T00:58:52;7.15;;;4.28;;
21645;SDS011;10984;45.712;4.800;2022-12-24T01:01:19;10.25;;;4.15;;
21645;SDS011;10984;45.712;4.800;2022-12-24T01:03:45;10.27;;;4.38;;
21645;SDS011;10984;45.712;4.800;2022-12-24T01:06:12;9.18;;;4.53;;
21645;SDS011;10984;45.712;4.800;2022-12-24T01:08:42;9.75;;;4.93;;
21645;SDS011;10984;45.712;4.800;2022-12-24T01:11:08;7.55;;;4.47;;
21645;SDS011;10984;45.712;4.800;2022-12-24T01:13:35;7.05;;;3.70;;
21645;SDS011;10984;45.712;4.800;2022-12-24T01:16:02;10.85;;;4.20;;
21645;SDS011;10984;45.712;4.800;2022-12-24T01:18:28;8.80;;;4.30;;
21645;SDS011;10984;45.712;4.800;2022-12-24T01:23:37;7.60;;;3.75;;
21645;SDS011;10984;45.712;4.800;2022-12-24T01:26:03;6.57;;;3.47;;
21645;SDS011;10984;45.712;4.800;2022-12-24T01:28:30;6.43;;;3.08;;
21645;SDS011;10984;45.712;4.800;2022-12-24T01:30:56;6.90;;;3.30;;
21645;SDS011;10984;45.712;4.800;2022-12-24T01:33:22;5.68;;;2.53;;
21645;SDS011;10984;45.712;4.800;2022-12-24T01:35:47;5.97;;;2.75;;
21645;SDS011;10984;45.712;4.800;2022-12-24T01:38:13;6.40;;;2.92;;
21645;SDS011;10984;45.712;4.800;2022-12-24T01:40:40;6.25;;;2.85;;
21645;SDS011;10984;45.712;4.800;2022-12-24T01:43:25;7.13;;;3.30;;
21645;SDS011;10984;45.712;4.800;2022-12-24T01:45:54;5.28;;;2.40;;
21645;SDS011;10984;45.712;4.800;2022-12-24T01:48:39;5.50;;;2.30;;
21645;SDS011;10984;45.712;4.800;2022-12-24T01:54:12;5.53;;;2.67;;
21645;SDS011;10984;45.712;4.800;2022-12-24T01:56:40;6.43;;;2.97;;
21645;SDS011;10984;45.712;4.800;2022-12-24T01:59:18;4.68;;;2.65;;
21645;SDS011;10984;45.712;4.800;2022-12-24T02:01:45;5.90;;;2.90;;
21645;SDS011;10984;45.712;4.800;2022-12-24T02:04:18;5.32;;;3.00;;
21645;SDS011;10984;45.712;4.800;2022-12-24T02:07:07;6.57;;;3.17;;
21645;SDS011;10984;45.712;4.800;2022-12-24T02:09:33;5.68;;;2.50;;
21645;SDS011;10984;45.712;4.800;2022-12-24T02:12:00;4.70;;;2.25;;
21645;SDS011;10984;45.712;4.800;2022-12-24T02:14:28;5.05;;;2.63;;
21645;SDS011;10984;45.712;4.800;2022-12-24T02:34:20;4.85;;;2.42;;
21645;SDS011;10984;45.712;4.800;2022-12-24T02:37:06;6.35;;;2.97;;
21645;SDS011;10984;45.712;4.800;2022-12-24T02:39:54;5.75;;;2.95;;
21645;SDS011;10984;45.712;4.800;2022-12-24T02:42:26;5.78;;;2.35;;
21645;SDS011;10984;45.712;4.800;2022-12-24T02:48:02;5.40;;;2.35;;
21645;SDS011;10984;45.712;4.800;2022-12-24T02:50:29;6.97;;;2.95;;
21645;SDS011;10984;45.712;4.800;2022-12-24T02:52:55;8.45;;;3.20;;
21645;SDS011;10984;45.712;4.800;2022-12-24T03:12:58;5.18;;;2.00;;
21645;SDS011;10984;45.712;4.800;2022-12-24T03:15:28;5.38;;;2.10;;
21645;SDS011;10984;45.712;4.800;2022-12-24T03:17:57;6.13;;;2.75;;
21645;SDS011;10984;45.712;4.800;2022-12-24T03:20:36;4.85;;;2.40;;
21645;SDS011;10984;45.712;4.800;2022-12-24T03:23:20;5.18;;;2.47;;
21645;SDS011;10984;45.712;4.800;2022-12-24T03:25:46;5.13;;;2.45;;
21645;SDS011;10984;45.712;4.800;2022-12-24T03:28:14;9.23;;;2.80;;
21645;SDS011;10984;45.712;4.800;2022-12-24T03:30:42;7.22;;;3.42;;
21645;SDS011;10984;45.712;4.800;2022-12-24T03:33:09;5.30;;;2.95;;
21645;SDS011;10984;45.712;4.800;2022-12-24T03:35:36;4.75;;;2.65;;
21645;SDS011;10984;45.712;4.800;2022-12-24T03:38:02;5.93;;;2.50;;
21645;SDS011;10984;45.712;4.800;2022-12-24T03:40:28;6.45;;;2.83;;
21645;SDS011;10984;45.712;4.800;2022-12-24T03:42:54;5.63;;;2.22;;
21645;SDS011;10984;45.712;4.800;2022-12-24T03:45:19;7.38;;;2.80;;
21645;SDS011;10984;45.712;4.800;2022-12-24T03:47:45;5.72;;;2.55;;
21645;SDS011;10984;45.712;4.800;2022-12-24T03:50:11;4.63;;;2.45;;
21645;SDS011;10984;45.712;4.800;2022-12-24T03:52:36;5.70;;;2.70;;
21645;SDS011;10984;45.712;4.800;2022-12-24T03:55:02;6.88;;;2.70;;
21645;SDS011;10984;45.712;4.800;2022-12-24T03:57:28;5.72;;;2.45;;
21645;SDS011;10984;45.712;4.800;2022-12-24T03:59:54;6.53;;;2.78;;
21645;SDS011;10984;45.712;4.800;2022-12-24T04:02:19;5.25;;;2.50;;
21645;SDS011;10984;45.712;4.800;2022-12-24T04:04:45;5.05;;;2.40;;
21645;SDS011;10984;45.712;4.800;2022-12-24T04:07:11;4.90;;;2.58;;
21645;SDS011;10984;45.712;4.800;2022-12-24T04:09:36;5.35;;;2.55;;
21645;SDS011;10984;45.712;4.800;2022-12-24T04:12:03;4.22;;;2.22;;
21645;SDS011;10984;45.712;4.800;2022-12-24T04:14:29;4.60;;;2.40;;
21645;SDS011;10984;45.712;4.800;2022-12-24T04:16:54;5.75;;;2.95;;
21645;SDS011;10984;45.712;4.800;2022-12-24T04:19:20;8.77;;;2.83;;
21645;SDS011;10984;45.712;4.800;2022-12-24T04:21:46;4.47;;;2.40;;
21645;SDS011;10984;45.712;4.800;2022-12-24T04:24:11;7.13;;;2.63;;
21645;SDS011;10984;45.712;4.800;2022-12-24T04:26:37;5.65;;;2.90;;
21645;SDS011;10984;45.712;4.800;2022-12-24T04:29:02;4.88;;;2.70;;
21645;SDS011;10984;45.712;4.800;2022-12-24T04:31:28;5.28;;;2.92;;
21645;SDS011;10984;45.712;4.800;2022-12-24T04:33:54;6.22;;;2.92;;
21645;SDS011;10984;45.712;4.800;2022-12-24T04:36:19;4.70;;;2.60;;
21645;SDS011;10984;45.712;4.800;2022-12-24T04:38:45;7.28;;;2.92;;
21645;SDS011;10984;45.712;4.800;2022-12-24T04:41:13;8.10;;;3.15;;
21645;SDS011;10984;45.712;4.800;2022-12-24T04:43:41;6.60;;;3.22;;
21645;SDS011;10984;45.712;4.800;2022-12-24T04:46:08;9.50;;;3.90;;
21645;SDS011;10984;45.712;4.800;2022-12-24T04:49:11;5.75;;;3.08;;
21645;SDS011;10984;45.712;4.800;2022-12-24T04:51:37;8.35;;;3.40;;
21645;SDS011;10984;45.712;4.800;2022-12-24T04:54:03;6.35;;;3.55;;
21645;SDS011;10984;45.712;4.800;2022-12-24T04:56:29;7.72;;;3.58;;
21645;SDS011;10984;45.712;4.800;2022-12-24T04:58:57;7.30;;;3.72;;
21645;SDS011;10984;45.712;4.800;2022-12-24T05:01:25;7.03;;;3.33;;
21645;SDS011;10984;45.712;4.800;2022-12-24T05:04:09;7.13;;;3.20;;
21645;SDS011;10984;45.712;4.800;2022-12-24T05:06:35;6.63;;;3.72;;
21645;SDS011;10984;45.712;4.800;2022-12-24T05:09:01;6.50;;;3.53;;
21645;SDS011;10984;45.712;4.800;2022-12-24T05:11:27;6.85;;;3.20;;
21645;SDS011;10984;45.712;4.800;2022-12-24T05:13:53;8.60;;;3.92;;
21645;SDS011;10984;45.712;4.800;2022-12-24T05:16:19;9.65;;;3.67;;
21645;SDS011;10984;45.712;4.800;2022-12-24T05:18:46;6.25;;;3.10;;
21645;SDS011;10984;45.712;4.800;2022-12-24T05:21:12;5.13;;;2.63;;
21645;SDS011;10984;45.712;4.800;2022-12-24T05:23:40;6.18;;;3.05;;
21645;SDS011;10984;45.712;4.800;2022-12-24T05:26:26;6.70;;;2.92;;
21645;SDS011;10984;45.712;4.800;2022-12-24T05:28:56;5.97;;;3.30;;
21645;SDS011;10984;45.712;4.800;2022-12-24T05:31:23;5.22;;;2.60;;
21645;SDS011;10984;45.712;4.800;2022-12-24T05:33:50;5.75;;;2.88;;
21645;SDS011;10984;45.712;4.800;2022-12-24T05:36:18;6.38;;;2.83;;
21645;SDS011;10984;45.712;4.800;2022-12-24T05:38:44;8.32;;;3.13;;
21645;SDS011;10984;45.712;4.800;2022-12-24T05:41:09;6.10;;;2.92;;
21645;SDS011;10984;45.712;4.800;2022-12-24T05:43:36;5.43;;;2.78;;
21645;SDS011;10984;45.712;4.800;2022-12-24T05:46:03;5.93;;;3.00;;
21645;SDS011;10984;45.712;4.800;2022-12-24T05:48:30;6.95;;;3.08;;
21645;SDS011;10984;45.712;4.800;2022-12-24T05:50:56;6.20;;;2.88;;
21645;SDS011;10984;45.712;4.800;2022-12-24T05:53:21;6.03;;;2.92;;
21645;SDS011;10984;45.712;4.800;2022-12-24T05:55:47;5.75;;;3.33;;
21645;SDS011;10984;45.712;4.800;2022-12-24T05:58:13;6.88;;;3.17;;
21645;SDS011;10984;45.712;4.800;2022-12-24T06:00:39;6.57;;;2.30;;
21645;SDS011;10984;45.712;4.800;2022-12-24T06:03:05;11.45;;;2.55;;
21645;SDS011;10984;45.712;4.800;2022-12-24T06:05:30;5.15;;;2.50;;
21645;SDS011;10984;45.712;4.800;2022-12-24T06:07:56;4.03;;;1.90;;
21645;SDS011;10984;45.712;4.800;2022-12-24T06:10:22;4.25;;;2.20;;
21645;SDS011;10984;45.712;4.800;2022-12-24T06:12:47;5.55;;;2.53;;
21645;SDS011;10984;45.712;4.800;2022-12-24T06:15:13;13.15;;;2.60;;
21645;SDS011;10984;45.712;4.800;2022-12-24T06:17:39;4.43;;;2.33;;
21645;SDS011;10984;45.712;4.800;2022-12-24T06:20:05;7.65;;;2.60;;
21645;SDS011;10984;45.712;4.800;2022-12-24T06:22:31;4.55;;;2.50;;
21645;SDS011;10984;45.712;4.800;2022-12-24T06:24:57;6.50;;;2.47;;
21645;SDS011;10984;45.712;4.800;2022-12-24T06:27:23;5.80;;;2.88;;
21645;SDS011;10984;45.712;4.800;2022-12-24T06:29:48;5.43;;;2.40;;
21645;SDS011;10984;45.712;4.800;2022-12-24T06:32:14;4.78;;;2.55;;
21645;SDS011;10984;45.712;4.800;2022-12-24T06:34:40;7.53;;;4.72;;
21645;SDS011;10984;45.712;4.800;2022-12-24T06:37:05;5.43;;;2.85;;
21645;SDS011;10984;45.712;4.800;2022-12-24T06:39:31;4.95;;;2.55;;
21645;SDS011;10984;45.712;4.800;2022-12-24T06:41:57;4.93;;;2.13;;
21645;SDS011;10984;45.712;4.800;2022-12-24T06:44:22;6.47;;;3.30;;
21645;SDS011;10984;45.712;4.800;2022-12-24T06:46:48;13.65;;;5.63;;
21645;SDS011;10984;45.712;4.800;2022-12-24T06:49:14;12.93;;;4.85;;
21645;SDS011;10984;45.712;4.800;2022-12-24T06:51:39;6.30;;;3.30;;
21645;SDS011;10984;45.712;4.800;2022-12-24T06:54:05;5.18;;;2.70;;
21645;SDS011;10984;45.712;4.800;2022-12-24T06:56:31;8.02;;;3.35;;
21645;SDS011;10984;45.712;4.800;2022-12-24T06:58:57;5.28;;;2.92;;
21645;SDS011;10984;45.712;4.800;2022-12-24T07:01:22;6.93;;;3.20;;
21645;SDS011;10984;45.712;4.800;2022-12-24T07:03:48;7.30;;;3.33;;
21645;SDS011;10984;45.712;4.800;2022-12-24T07:06:17;7.13;;;4.30;;
21645;SDS011;10984;45.712;4.800;2022-12-24T07:08:44;8.23;;;4.20;;
21645;SDS011;10984;45.712;4.800;2022-12-24T07:11:10;10.02;;;4.47;;
21645;SDS011;10984;45.712;4.800;2022-12-24T07:13:35;7.20;;;3.90;;
21645;SDS011;10984;45.712;4.800;2022-12-24T07:16:02;7.85;;;4.03;;
21645;SDS011;10984;45.712;4.800;2022-12-24T07:18:29;12.27;;;4.47;;
21645;SDS011;10984;45.712;4.800;2022-12-24T07:20:55;7.07;;;3.80;;
21645;SDS011;10984;45.712;4.800;2022-12-24T07:23:21;6.53;;;3.33;;
21645;SDS011;10984;45.712;4.800;2022-12-24T07:25:47;6.72;;;3.25;;
21645;SDS011;10984;45.712;4.800;2022-12-24T07:28:13;6.05;;;3.22;;
21645;SDS011;10984;45.712;4.800;2022-12-24T07:30:39;8.77;;;3.75;;
21645;SDS011;10984;45.712;4.800;2022-12-24T07:33:04;9.43;;;4.70;;
21645;SDS011;10984;45.712;4.800;2022-12-24T07:35:30;9.88;;;4.82;;
21645;SDS011;10984;45.712;4.800;2022-12-24T07:37:55;10.52;;;5.38;;
21645;SDS011;10984;45.712;4.800;2022-12-24T07:40:21;14.82;;;6.97;;
21645;SDS011;10984;45.712;4.800;2022-12-24T07:42:47;12.02;;;6.28;;
21645;SDS011;10984;45.712;4.800;2022-12-24T07:45:12;11.23;;;5.93;;
21645;SDS011;10984;45.712;4.800;2022-12-24T07:47:38;9.65;;;5.15;;
21645;SDS011;10984;45.712;4.800;2022-12-24T07:50:04;9.20;;;5.18;;
21645;SDS011;10984;45.712;4.800;2022-12-24T07:52:30;8.45;;;5.00;;
21645;SDS011;10984;45.712;4.800;2022-12-24T07:54:56;12.18;;;5.32;;
21645;SDS011;10984;45.712;4.800;2022-12-24T07:57:22;10.00;;;5.53;;
21645;SDS011;10984;45.712;4.800;2022-12-24T07:59:47;8.05;;;3.63;;
21645;SDS011;10984;45.712;4.800;2022-12-24T08:02:13;8.65;;;4.45;;
21645;SDS011;10984;45.712;4.800;2022-12-24T08:04:38;8.77;;;4.32;;
21645;SDS011;10984;45.712;4.800;2022-12-24T08:07:05;13.35;;;5.72;;
21645;SDS011;10984;45.712;4.800;2022-12-24T08:09:31;9.85;;;4.55;;
21645;SDS011;10984;45.712;4.800;2022-12-24T08:11:58;14.30;;;6.72;;
21645;SDS011;10984;45.712;4.800;2022-12-24T08:14:24;9.02;;;4.70;;
21645;SDS011;10984;45.712;4.800;2022-12-24T08:16:49;7.35;;;4.35;;
21645;SDS011;10984;45.712;4.800;2022-12-24T08:19:15;8.05;;;3.85;;
21645;SDS011;10984;45.712;4.800;2022-12-24T08:21:41;8.48;;;4.15;;
21645;SDS011;10984;45.712;4.800;2022-12-24T08:24:06;9.27;;;4.03;;
21645;SDS011;10984;45.712;4.800;2022-12-24T08:26:32;7.72;;;4.07;;
21645;SDS011;10984;45.712;4.800;2022-12-24T08:28:58;8.70;;;4.90;;
21645;SDS011;10984;45.712;4.800;2022-12-24T08:31:23;9.63;;;4.28;;
21645;SDS011;10984;45.712;4.800;2022-12-24T08:33:49;8.27;;;4.25;;
21645;SDS011;10984;45.712;4.800;2022-12-24T08:36:15;14.07;;;5.90;;
21645;SDS011;10984;45.712;4.800;2022-12-24T08:38:40;9.90;;;5.35;;
21645;SDS011;10984;45.712;4.800;2022-12-24T08:41:06;9.25;;;5.18;;
21645;SDS011;10984;45.712;4.800;2022-12-24T08:43:32;10.13;;;4.72;;
21645;SDS011;10984;45.712;4.800;2022-12-24T08:46:00;10.38;;;4.60;;
21645;SDS011;10984;45.712;4.800;2022-12-24T08:48:28;12.27;;;5.85;;
21645;SDS011;10984;45.712;4.800;2022-12-24T08:50:54;14.82;;;5.38;;
21645;SDS011;10984;45.712;4.800;2022-12-24T08:53:19;9.57;;;5.45;;
21645;SDS011;10984;45.712;4.800;2022-12-24T08:55:45;11.27;;;5.18;;
21645;SDS011;10984;45.712;4.800;2022-12-24T08:58:12;8.52;;;4.90;;
21645;SDS011;10984;45.712;4.800;2022-12-24T09:00:38;9.52;;;5.22;;
21645;SDS011;10984;45.712;4.800;2022-12-24T09:03:03;12.20;;;5.97;;
21645;SDS011;10984;45.712;4.800;2022-12-24T09:05:29;18.08;;;6.35;;
21645;SDS011;10984;45.712;4.800;2022-12-24T09:07:55;16.90;;;6.55;;
21645;SDS011;10984;45.712;4.800;2022-12-24T09:10:21;10.80;;;6.15;;
21645;SDS011;10984;45.712;4.800;2022-12-24T09:12:47;13.90;;;6.20;;
21645;SDS011;10984;45.712;4.800;2022-12-24T09:15:12;13.23;;;6.47;;
21645;SDS011;10984;45.712;4.800;2022-12-24T09:17:38;14.27;;;6.50;;
21645;SDS011;10984;45.712;4.800;2022-12-24T09:20:04;9.90;;;5.75;;
21645;SDS011;10984;45.712;4.800;2022-12-24T09:22:31;13.60;;;5.85;;
21645;SDS011;10984;45.712;4.800;2022-12-24T09:24:59;14.27;;;5.82;;
21645;SDS011;10984;45.712;4.800;2022-12-24T09:27:24;14.82;;;7.43;;
21645;SDS011;10984;45.712;4.800;2022-12-24T09:29:50;11.25;;;6.40;;
21645;SDS011;10984;45.712;4.800;2022-12-24T09:32:16;14.32;;;6.50;;
21645;SDS011;10984;45.712;4.800;2022-12-24T09:34:41;15.15;;;6.57;;
21645;SDS011;10984;45.712;4.800;2022-12-24T09:37:07;16.90;;;7.47;;
21645;SDS011;10984;45.712;4.800;2022-12-24T09:39:33;14.70;;;7.70;;
21645;SDS011;10984;45.712;4.800;2022-12-24T09:48:07;18.85;;;8.90;;
21645;SDS011;10984;45.712;4.800;2022-12-24T09:56:26;16.77;;;7.93;;
21645;SDS011;10984;45.712;4.800;2022-12-24T10:02:16;14.82;;;7.43;;
21645;SDS011;10984;45.712;4.800;2022-12-24T10:04:43;15.63;;;7.95;;
21645;SDS011;10984;45.712;4.800;2022-12-24T10:24:29;15.52;;;7.97;;
21645;SDS011;10984;45.712;4.800;2022-12-24T10:27:04;11.85;;;6.45;;
21645;SDS011;10984;45.712;4.800;2022-12-24T10:29:36;14.05;;;7.00;;
21645;SDS011;10984;45.712;4.800;2022-12-24T10:37:22;10.10;;;5.55;;
21645;SDS011;10984;45.712;4.800;2022-12-24T10:39:49;10.15;;;5.93;;
21645;SDS011;10984;45.712;4.800;2022-12-24T10:42:16;11.35;;;5.72;;
21645;SDS011;10984;45.712;4.800;2022-12-24T10:44:44;9.38;;;5.07;;
21645;SDS011;10984;45.712;4.800;2022-12-24T10:47:13;9.65;;;5.80;;
21645;SDS011;10984;45.712;4.800;2022-12-24T10:52:45;14.25;;;6.45;;
21645;SDS011;10984;45.712;4.800;2022-12-24T10:57:58;10.65;;;4.32;;
21645;SDS011;10984;45.712;4.800;2022-12-24T11:00:26;8.18;;;5.00;;
21645;SDS011;10984;45.712;4.800;2022-12-24T11:05:37;9.88;;;4.63;;
21645;SDS011;10984;45.712;4.800;2022-12-24T11:13:54;9.35;;;5.00;;
21645;SDS011;10984;45.712;4.800;2022-12-24T11:22:00;12.05;;;6.35;;
21645;SDS011;10984;45.712;4.800;2022-12-24T11:24:45;15.18;;;6.13;;
21645;SDS011;10984;45.712;4.800;2022-12-24T11:27:22;11.65;;;6.55;;
21645;SDS011;10984;45.712;4.800;2022-12-24T11:36:00;11.40;;;6.40;;
21645;SDS011;10984;45.712;4.800;2022-12-24T11:38:50;10.70;;;6.20;;
21645;SDS011;10984;45.712;4.800;2022-12-24T11:41:36;13.23;;;6.47;;
21645;SDS011;10984;45.712;4.800;2022-12-24T11:44:01;11.18;;;6.18;;
21645;SDS011;10984;45.712;4.800;2022-12-24T11:49:20;10.75;;;5.68;;
21645;SDS011;10984;45.712;4.800;2022-12-24T12:00:46;11.52;;;5.97;;
21645;SDS011;10984;45.712;4.800;2022-12-24T12:06:02;11.18;;;6.95;;
21645;SDS011;10984;45.712;4.800;2022-12-24T12:08:31;11.13;;;6.32;;
21645;SDS011;10984;45.712;4.800;2022-12-24T12:10:59;11.30;;;5.95;;
21645;SDS011;10984;45.712;4.800;2022-12-24T12:13:28;9.88;;;5.65;;
21645;SDS011;10984;45.712;4.800;2022-12-24T12:18:51;12.00;;;6.63;;
21645;SDS011;10984;45.712;4.800;2022-12-24T12:24:24;11.77;;;6.43;;
21645;SDS011;10984;45.712;4.800;2022-12-24T12:29:58;11.32;;;6.35;;
21645;SDS011;10984;45.712;4.800;2022-12-24T12:32:30;10.50;;;6.47;;
21645;SDS011;10984;45.712;4.800;2022-12-24T12:35:21;11.07;;;6.57;;
21645;SDS011;10984;45.712;4.800;2022-12-24T12:49:47;13.07;;;6.35;;
21645;SDS011;10984;45.712;4.800;2022-12-24T12:55:21;11.63;;;6.57;;
21645;SDS011;10984;45.712;4.800;2022-12-24T12:58:11;13.80;;;7.45;;
21645;SDS011;10984;45.712;4.800;2022-12-24T13:00:58;15.35;;;7.30;;
21645;SDS011;10984;45.712;4.800;2022-12-24T13:21:14;11.80;;;6.88;;
21645;SDS011;10984;45.712;4.800;2022-12-24T13:23:41;14.10;;;7.40;;
21645;SDS011;10984;45.712;4.800;2022-12-24T13:28:51;13.90;;;7.38;;
21645;SDS011;10984;45.712;4.800;2022-12-24T13:36:10;10.80;;;6.00;;
21645;SDS011;10984;45.712;4.800;2022-12-24T13:48:26;11.73;;;6.50;;
21645;SDS011;10984;45.712;4.800;2022-12-24T13:50:55;12.60;;;7.15;;
21645;SDS011;10984;45.712;4.800;2022-12-24T13:56:47;11.77;;;6.82;;
21645;SDS011;10984;45.712;4.800;2022-12-24T14:08:43;13.50;;;6.93;;
21645;SDS011;10984;45.712;4.800;2022-12-24T14:11:29;14.02;;;7.55;;
21645;SDS011;10984;45.712;4.800;2022-12-24T14:17:57;11.27;;;7.00;;
21645;SDS011;10984;45.712;4.800;2022-12-24T14:20:23;13.07;;;7.72;;
21645;SDS011;10984;45.712;4.800;2022-12-24T14:22:49;16.98;;;8.02;;
21645;SDS011;10984;45.712;4.800;2022-12-24T14:25:16;10.95;;;6.22;;
21645;SDS011;10984;45.712;4.800;2022-12-24T14:28:12;10.82;;;6.80;;
21645;SDS011;10984;45.712;4.800;2022-12-24T14:31:13;11.77;;;6.75;;
21645;SDS011;10984;45.712;4.800;2022-12-24T14:34:08;12.02;;;6.45;;
21645;SDS011;10984;45.712;4.800;2022-12-24T14:36:53;10.68;;;6.50;;
21645;SDS011;10984;45.712;4.800;2022-12-24T14:42:35;13.95;;;6.95;;
21645;SDS011;10984;45.712;4.800;2022-12-24T15:16:29;14.35;;;7.18;;
21645;SDS011;10984;45.712;4.800;2022-12-24T18:53:25;49.70;;;26.30;;
21645;SDS011;10984;45.712;4.800;2022-12-24T18:55:51;56.33;;;27.35;;
21645;SDS011;10984;45.712;4.800;2022-12-24T18:58:17;37.60;;;20.45;;
21645;SDS011;10984;45.712;4.800;2022-12-24T19:00:42;38.70;;;20.90;;
21645;SDS011;10984;45.712;4.800;2022-12-24T19:03:08;39.70;;;21.90;;
21645;SDS011;10984;45.712;4.800;2022-12-24T19:05:34;56.08;;;27.10;;
21645;SDS011;10984;45.712;4.800;2022-12-24T19:07:59;57.17;;;28.77;;
21645;SDS011;10984;45.712;4.800;2022-12-24T19:10:25;57.97;;;31.73;;
21645;SDS011;10984;45.712;4.800;2022-12-24T19:12:51;67.25;;;31.73;;
21645;SDS011;10984;45.712;4.800;2022-12-24T19:15:16;60.03;;;28.95;;
21645;SDS011;10984;45.712;4.800;2022-12-24T19:17:42;52.30;;;25.65;;
21645;SDS011;10984;45.712;4.800;2022-12-24T19:20:08;52.22;;;25.85;;
21645;SDS011;10984;45.712;4.800;2022-12-24T19:22:34;47.00;;;24.88;;
21645;SDS011;10984;45.712;4.800;2022-12-24T19:25:00;45.72;;;22.67;;
21645;SDS011;10984;45.712;4.800;2022-12-24T19:27:25;41.65;;;22.15;;
21645;SDS011;10984;45.712;4.800;2022-12-24T19:29:51;45.28;;;22.48;;
21645;SDS011;10984;45.712;4.800;2022-12-24T19:32:17;41.15;;;23.35;;
21645;SDS011;10984;45.712;4.800;2022-12-24T19:34:43;37.15;;;19.27;;
21645;SDS011;10984;45.712;4.800;2022-12-24T19:37:08;37.53;;;19.25;;
21645;SDS011;10984;45.712;4.800;2022-12-24T19:39:35;47.85;;;24.15;;
21645;SDS011;10984;45.712;4.800;2022-12-24T19:42:00;61.22;;;29.92;;
21645;SDS011;10984;45.712;4.800;2022-12-24T19:44:26;62.72;;;29.45;;
21645;SDS011;10984;45.712;4.800;2022-12-24T19:46:52;51.00;;;26.60;;
21645;SDS011;10984;45.712;4.800;2022-12-24T19:49:18;56.33;;;27.77;;
21645;SDS011;10984;45.712;4.800;2022-12-24T19:51:44;44.25;;;22.65;;
21645;SDS011;10984;45.712;4.800;2022-12-24T19:54:10;41.10;;;20.85;;
21645;SDS011;10984;45.712;4.800;2022-12-24T19:56:36;38.70;;;20.77;;
21645;SDS011;10984;45.712;4.800;2022-12-24T19:59:03;38.60;;;20.90;;
21645;SDS011;10984;45.712;4.800;2022-12-24T20:01:30;35.25;;;19.33;;
21645;SDS011;10984;45.712;4.800;2022-12-24T20:03:57;46.25;;;23.17;;
21645;SDS011;10984;45.712;4.800;2022-12-24T20:06:24;41.78;;;22.73;;
21645;SDS011;10984;45.712;4.800;2022-12-24T20:08:51;39.00;;;20.58;;
21645;SDS011;10984;45.712;4.800;2022-12-24T20:11:21;40.85;;;19.98;;
21645;SDS011;10984;45.712;4.800;2022-12-24T20:13:47;42.20;;;20.77;;
21645;SDS011;10984;45.712;4.800;2022-12-24T20:16:15;38.25;;;19.65;;
21645;SDS011;10984;45.712;4.800;2022-12-24T20:18:43;40.97;;;21.13;;
21645;SDS011;10984;45.712;4.800;2022-12-24T20:21:14;45.97;;;22.38;;
21645;SDS011;10984;45.712;4.800;2022-12-24T20:23:40;40.17;;;21.50;;
21645;SDS011;10984;45.712;4.800;2022-12-24T20:26:06;42.78;;;21.08;;
21645;SDS011;10984;45.712;4.800;2022-12-24T20:28:35;44.50;;;22.38;;
21645;SDS011;10984;45.712;4.800;2022-12-24T20:31:07;53.78;;;24.17;;
21645;SDS011;10984;45.712;4.800;2022-12-24T20:33:35;45.35;;;22.08;;
21645;SDS011;10984;45.712;4.800;2022-12-24T20:36:01;45.55;;;22.80;;
21645;SDS011;10984;45.712;4.800;2022-12-24T20:38:26;45.08;;;23.67;;
21645;SDS011;10984;45.712;4.800;2022-12-24T20:40:53;43.90;;;22.27;;
21645;SDS011;10984;45.712;4.800;2022-12-24T20:43:20;42.35;;;22.13;;
21645;SDS011;10984;45.712;4.800;2022-12-24T20:48:30;39.10;;;21.10;;
21645;SDS011;10984;45.712;4.800;2022-12-24T20:50:56;43.70;;;21.98;;
21645;SDS011;10984;45.712;4.800;2022-12-24T20:53:23;40.75;;;21.98;;
21645;SDS011;10984;45.712;4.800;2022-12-24T20:58:33;41.28;;;20.40;;
21645;SDS011;10984;45.712;4.800;2022-12-24T21:00:58;48.35;;;21.02;;
21645;SDS011;10984;45.712;4.800;2022-12-24T21:03:24;46.95;;;20.13;;
21645;SDS011;10984;45.712;4.800;2022-12-24T21:05:50;45.08;;;19.40;;
21645;SDS011;10984;45.712;4.800;2022-12-24T21:08:15;40.17;;;18.33;;
21645;SDS011;10984;45.712;4.800;2022-12-24T21:10:41;47.83;;;18.27;;
21645;SDS011;10984;45.712;4.800;2022-12-24T21:13:09;40.28;;;15.25;;
21645;SDS011;10984;45.712;4.800;2022-12-24T21:15:36;42.42;;;16.67;;
21645;SDS011;10984;45.712;4.800;2022-12-24T21:18:04;44.58;;;17.58;;
21645;SDS011;10984;45.712;4.800;2022-12-24T21:20:38;47.33;;;18.98;;
21645;SDS011;10984;45.712;4.800;2022-12-24T21:23:06;44.75;;;17.13;;
21645;SDS011;10984;45.712;4.800;2022-12-24T21:25:32;42.90;;;18.10;;
21645;SDS011;10984;45.712;4.800;2022-12-24T21:27:58;43.63;;;17.60;;
21645;SDS011;10984;45.712;4.800;2022-12-24T21:30:23;45.92;;;18.70;;
21645;SDS011;10984;45.712;4.800;2022-12-24T21:32:49;38.47;;;15.63;;
21645;SDS011;10984;45.712;4.800;2022-12-24T21:35:15;40.78;;;15.27;;
21645;SDS011;10984;45.712;4.800;2022-12-24T21:37:41;36.65;;;14.60;;
21645;SDS011;10984;45.712;4.800;2022-12-24T21:40:08;37.00;;;15.73;;
21645;SDS011;10984;45.712;4.800;2022-12-24T21:42:34;32.92;;;13.52;;
21645;SDS011;10984;45.712;4.800;2022-12-24T21:45:00;33.53;;;13.35;;
21645;SDS011;10984;45.712;4.800;2022-12-24T21:47:27;33.60;;;13.60;;
21645;SDS011;10984;45.712;4.800;2022-12-24T21:49:52;35.85;;;13.27;;
21645;SDS011;10984;45.712;4.800;2022-12-24T21:52:38;36.42;;;13.98;;
21645;SDS011;10984;45.712;4.800;2022-12-24T21:55:04;34.88;;;12.65;;
21645;SDS011;10984;45.712;4.800;2022-12-24T21:57:31;29.33;;;12.20;;
21645;SDS011;10984;45.712;4.800;2022-12-24T22:00:16;36.45;;;12.45;;
21645;SDS011;10984;45.712;4.800;2022-12-24T22:03:00;34.10;;;13.02;;
21645;SDS011;10984;45.712;4.800;2022-12-24T22:05:26;35.00;;;13.68;;
21645;SDS011;10984;45.712;4.800;2022-12-24T22:07:52;42.22;;;13.32;;
21645;SDS011;10984;45.712;4.800;2022-12-24T22:10:37;31.27;;;13.45;;
21645;SDS011;10984;45.712;4.800;2022-12-24T22:13:22;34.53;;;14.30;;
21645;SDS011;10984;45.712;4.800;2022-12-24T22:15:49;30.85;;;12.48;;
21645;SDS011;10984;45.712;4.800;2022-12-24T22:18:17;31.88;;;13.55;;
21645;SDS011;10984;45.712;4.800;2022-12-24T22:20:45;41.65;;;13.43;;